Union, Iowa
Current Conditions -  °F | °C
As of 3:53 PM on Thursday 27 Nov 2014 (Local Time) from KMIW Reporting Station
Clear Clear  
Wind Chill: -4°   Ceiling: Unl
Heat Index:   Visibility: 10mi
Dew Point: -1°   Wind: 6mph
Humidity: 73%   Direction: 270°W
Pressure: 30.45"   Gusts: NA
Location:  42.25°N, 93.06°W
Report Text: KMIW 272153Z AUTO 27005KT 10SM CLR M14/M18 A3045 RMK AO2 SLP334 T11441183
Loading
Personal Weather Stations






























Interactive Weather Map New forecast layout! Learn more

10-Day Weather Forecast

Advertisements
Track Severe Weather on mobile